Terminal Aerodrome Forecast
Issued by NWS Corpus Christi, TX

Home | Current Version | Previous Version | Text Only | Print | Product List | Glossary On
Versions: 1 2 3 4 5 6 7 8 9 10 11 12
000
FTUS44 KCRP 220500
TAFVCT
TAF
KVCT 220531Z 2206/2306 16009KT P6SM FEW020
      TEMPO 2206/2210 5SM BR BKN018
     FM221000 18005KT 5SM BR FEW015
      TEMPO 2210/2214 4SM BR BKN014
     FM221400 18008KT P6SM SCT025
     FM221800 16012KT P6SM FEW040=

USA.gov is the U.S. government's official web portal to all federal, state and local government web resources and services.